Tanana, Alaska
Current Conditions -  °F | °C
As of 4:52 PM on Friday 24 Oct 2014 (Local Time) from PATA Reporting Station
Light Snow Light Snow  
Wind Chill: 26°   Ceiling: 1000
Heat Index: 26°   Visibility: 7mi
Dew Point: 22°   Wind: 0mph
Humidity: 84%   Direction: NA
Pressure: 29.93"   Gusts: NA
Location:  65.18°N, 152.08°W
Report Text: PATA 250052Z 00000KT 7SM -SN BKN010 OVC060 M03/M06 A2993 RMK AO2 SNB41 SLP141 T10331056
Loading
Personal Weather Stations






























Interactive Weather Map
Tropical Storm Tracking
New forecast layout! Learn more

10-Day Weather Forecast

Advertisements
Track Severe Weather on mobile